createdAt,value
2023-02-01T00:37:05.546Z,10.26
2023-02-01T00:38:16.274Z,10.46
2023-02-01T00:39:27.375Z,9.85
2023-02-01T00:40:38.332Z,9.22
2023-02-01T00:41:13.304Z,8.94
2023-02-01T00:41:46.168Z,8.52
2023-02-01T00:42:58.621Z,8.00
2023-02-01T00:43:32.514Z,8.01
2023-02-01T00:44:05.595Z,8.28
2023-02-01T00:45:17.069Z,9.05
2023-02-01T00:46:27.908Z,9.66
2023-02-01T00:47:39.299Z,10.19
2023-02-01T00:48:12.170Z,10.39
2023-02-01T00:48:45.145Z,10.45
2023-02-01T00:49:56.112Z,10.25
2023-02-01T00:51:46.715Z,9.18
2023-02-01T00:52:19.678Z,8.64
2023-02-01T00:52:52.643Z,8.34
2023-02-01T00:55:16.416Z,8.70
2023-02-01T00:56:28.829Z,9.30
2023-02-01T00:57:39.676Z,9.84
2023-02-01T00:58:12.749Z,10.01
2023-02-01T00:58:46.142Z,10.17
2023-02-01T00:59:57.060Z,10.47
2023-02-01T01:01:07.909Z,10.40
2023-02-01T01:01:40.971Z,10.14
2023-02-01T01:02:15.666Z,9.89
2023-02-01T01:02:48.717Z,9.58
2023-02-01T01:05:16.686Z,8.26
2023-02-01T01:05:50.992Z,8.20
2023-02-01T01:06:28.140Z,8.28
2023-02-01T01:07:01.137Z,8.57
2023-02-01T01:07:34.108Z,8.88
2023-02-01T01:08:07.287Z,9.18
2023-02-01T01:09:56.555Z,10.02
2023-02-01T01:11:55.996Z,9.97
2023-02-01T01:12:28.926Z,9.72
2023-02-01T01:13:39.991Z,9.16
2023-02-01T01:14:12.979Z,8.73
2023-02-01T01:14:45.833Z,8.43
2023-02-01T01:15:56.439Z,8.11
2023-02-01T01:16:30.734Z,8.13
2023-02-01T01:17:03.692Z,8.33
2023-02-01T01:18:14.315Z,8.95
2023-02-01T01:19:25.179Z,9.47
2023-02-01T01:19:59.909Z,9.83
2023-02-01T01:20:34.807Z,10.04
2023-02-01T01:21:46.487Z,10.10
2023-02-01T01:22:57.247Z,9.51
2023-02-01T01:24:08.118Z,8.83
2023-02-01T01:24:40.977Z,8.48
2023-02-01T01:25:14.057Z,8.11
2023-02-01T01:26:27.317Z,7.77
2023-02-01T01:27:38.234Z,8.17
2023-02-01T01:28:48.996Z,8.31
2023-02-01T01:29:59.750Z,8.78
2023-02-01T01:30:32.738Z,9.27
2023-02-01T01:31:09.311Z,9.43
2023-02-01T01:31:42.316Z,9.68
2023-02-01T01:32:15.639Z,9.79
2023-02-01T01:33:26.397Z,9.65
2023-02-01T01:35:15.860Z,8.80
2023-02-01T01:36:27.347Z,8.12
2023-02-01T01:37:38.418Z,7.72
2023-02-01T01:38:12.475Z,7.76
2023-02-01T01:38:45.406Z,7.97
2023-02-01T01:39:57.052Z,8.50
2023-02-01T01:41:09.245Z,9.22
2023-02-01T01:41:42.230Z,9.39
2023-02-01T01:42:15.156Z,9.67
2023-02-01T01:42:48.128Z,9.91
2023-02-01T01:43:23.722Z,9.86
2023-02-01T01:45:05.519Z,9.37
2023-02-01T01:48:28.281Z,7.69
2023-02-01T01:49:11.589Z,7.90
2023-02-01T01:49:44.636Z,8.32
2023-02-01T01:50:21.127Z,8.66
2023-02-01T01:50:59.015Z,9.04
2023-02-01T01:51:32.363Z,9.42
2023-02-01T01:52:05.303Z,9.72
2023-02-01T01:54:49.174Z,9.16
2023-02-01T01:56:37.715Z,8.04
2023-02-01T01:57:56.635Z,7.64
2023-02-01T01:59:07.932Z,8.00
2023-02-01T02:02:14.404Z,9.71
2023-02-01T02:03:34.478Z,9.39
2023-02-01T02:04:07.450Z,9.04
2023-02-01T02:06:42.182Z,7.48
2023-02-01T02:08:01.084Z,7.54
2023-02-01T02:08:34.330Z,7.87
2023-02-01T02:09:07.799Z,8.12
2023-02-01T02:11:02.753Z,9.15
2023-02-01T02:11:35.824Z,9.39
2023-02-01T02:12:08.837Z,9.59
2023-02-01T02:12:42.772Z,9.72
2023-02-01T02:13:16.329Z,9.82
2023-02-01T02:13:53.351Z,9.94
2023-02-01T02:15:06.236Z,9.63
2023-02-01T02:15:41.923Z,9.32
2023-02-01T02:16:17.600Z,8.91
2023-02-01T02:19:09.144Z,7.58
2023-02-01T02:19:46.933Z,7.55
2023-02-01T02:20:51.091Z,7.79
2023-02-01T02:22:01.842Z,8.28
2023-02-01T02:23:04.336Z,8.91
2023-02-01T02:24:54.810Z,9.73
2023-02-01T02:25:33.811Z,9.70
2023-02-01T02:26:13.338Z,9.57
2023-02-01T02:27:45.831Z,9.36
2023-02-01T02:28:26.149Z,8.45
2023-02-01T02:29:14.039Z,8.03
2023-02-01T02:30:07.019Z,7.57
2023-02-01T02:31:01.983Z,7.58
2023-02-01T02:31:50.449Z,7.87
2023-02-01T02:32:46.948Z,8.30
2023-02-01T02:35:34.325Z,9.42
2023-02-01T02:36:31.628Z,9.55
2023-02-01T02:37:08.888Z,9.43
2023-02-01T02:37:43.398Z,8.92
2023-02-01T02:38:23.653Z,8.70
2023-02-01T02:41:45.590Z,7.71
2023-02-01T02:42:45.901Z,8.14
2023-02-01T02:43:42.130Z,8.71
2023-02-01T02:44:41.410Z,9.07
2023-02-01T02:45:33.041Z,9.26
2023-02-01T02:46:36.520Z,9.85
2023-02-01T02:47:28.757Z,9.66
2023-02-01T02:48:16.858Z,9.15
2023-02-01T02:50:16.470Z,8.06
2023-02-01T02:51:13.099Z,7.70
2023-02-01T02:52:09.010Z,7.80
2023-02-01T02:53:05.730Z,8.27
2023-02-01T02:54:03.207Z,8.75
2023-02-01T02:54:47.515Z,9.16
2023-02-01T02:55:21.930Z,9.43
2023-02-01T02:56:13.955Z,9.50
2023-02-01T02:57:05.860Z,9.74
2023-02-01T02:57:58.800Z,9.94
2023-02-01T02:58:50.922Z,10.17
2023-02-01T02:59:44.273Z,9.78
2023-02-01T03:00:38.547Z,9.37
2023-02-01T03:01:30.055Z,8.84
2023-02-01T03:02:21.906Z,8.19
2023-02-01T03:03:13.798Z,7.74
2023-02-01T03:04:09.945Z,7.81
2023-02-01T03:04:43.692Z,8.02
2023-02-01T03:05:51.677Z,8.47
2023-02-01T03:06:24.865Z,8.98
2023-02-01T03:08:11.669Z,9.33
2023-02-01T03:08:46.383Z,9.60
2023-02-01T03:09:28.371Z,9.81
2023-02-01T03:10:05.445Z,9.86
2023-02-01T03:10:50.288Z,9.75
2023-02-01T03:11:23.124Z,9.55
2023-02-01T03:12:57.102Z,8.73
2023-02-01T03:13:36.686Z,8.46
2023-02-01T03:14:09.660Z,8.17
2023-02-01T03:14:42.632Z,7.89
2023-02-01T03:15:15.608Z,7.73
2023-02-01T03:18:56.585Z,8.91
2023-02-01T03:21:48.822Z,9.76
2023-02-01T03:22:23.947Z,9.88
2023-02-01T03:22:57.332Z,9.95
2023-02-01T03:23:32.255Z,9.82
2023-02-01T03:24:48.324Z,9.15
2023-02-01T03:28:07.617Z,7.68
2023-02-01T03:28:40.789Z,7.86
2023-02-01T03:29:16.016Z,8.11
2023-02-01T03:29:56.171Z,8.42
2023-02-01T03:30:36.025Z,8.77
2023-02-01T03:34:19.968Z,10.06
2023-02-01T03:35:50.247Z,9.83
2023-02-01T03:36:37.157Z,9.37
2023-02-01T03:37:14.964Z,8.98
2023-02-01T03:37:47.899Z,8.46
2023-02-01T03:38:40.038Z,8.14
2023-02-01T03:39:45.055Z,7.94
2023-02-01T03:41:25.197Z,8.20
2023-02-01T03:43:21.735Z,9.19
2023-02-01T03:45:11.607Z,9.63
2023-02-01T03:45:51.055Z,9.86
2023-02-01T03:46:34.172Z,9.85
2023-02-01T03:47:50.228Z,9.45
2023-02-01T03:48:23.400Z,9.20
2023-02-01T03:50:19.631Z,8.13
2023-02-01T03:53:19.227Z,8.17
2023-02-01T03:53:52.216Z,8.52
2023-02-01T03:55:03.280Z,9.26
2023-02-01T03:55:36.316Z,9.57
2023-02-01T03:56:09.531Z,9.70
2023-02-01T03:57:31.353Z,9.69
2023-02-01T03:58:07.421Z,9.52
2023-02-01T03:58:41.119Z,9.20
2023-02-01T03:59:14.772Z,8.88
2023-02-01T04:01:42.534Z,7.66
2023-02-01T04:02:53.914Z,7.88
2023-02-01T04:04:43.273Z,8.47
2023-02-01T04:05:54.131Z,9.02
2023-02-01T04:07:05.306Z,9.52
2023-02-01T04:08:16.365Z,9.79
2023-02-01T04:08:49.443Z,9.77
2023-02-01T04:09:22.480Z,9.69
2023-02-01T04:10:33.275Z,9.18
2023-02-01T04:11:44.239Z,8.45
2023-02-01T04:12:54.780Z,7.76
2023-02-01T04:14:05.653Z,7.64
2023-02-01T04:15:54.301Z,8.27
2023-02-01T04:16:27.194Z,8.58
2023-02-01T04:17:00.048Z,8.85
2023-02-01T04:18:10.903Z,9.38
2023-02-01T04:18:43.878Z,9.59
2023-02-01T04:19:16.746Z,9.69
2023-02-01T04:19:49.593Z,9.68
2023-02-01T04:20:22.735Z,9.63
2023-02-01T04:20:55.868Z,9.47
2023-02-01T04:22:07.241Z,8.57
2023-02-01T04:22:40.234Z,8.28
2023-02-01T04:23:13.257Z,7.89
2023-02-01T04:24:23.948Z,7.56
2023-02-01T04:25:34.607Z,7.95
2023-02-01T04:26:45.800Z,8.59
2023-02-01T04:27:56.430Z,9.12
2023-02-01T04:28:29.607Z,9.43
2023-02-01T04:29:02.478Z,9.64
2023-02-01T04:30:51.509Z,9.31
2023-02-01T04:32:44.077Z,8.35
2023-02-01T04:33:55.757Z,7.65
2023-02-01T04:36:23.354Z,8.06
2023-02-01T04:36:56.323Z,8.27
2023-02-01T04:37:30.184Z,8.57
2023-02-01T04:38:41.149Z,9.13
2023-02-01T04:39:51.893Z,9.58
2023-02-01T04:40:25.089Z,9.62
2023-02-01T04:41:36.350Z,9.71
2023-02-01T04:42:09.833Z,9.44
2023-02-01T04:42:43.408Z,9.02
2023-02-01T04:43:55.629Z,8.18
2023-02-01T04:46:29.446Z,7.67
2023-02-01T04:47:02.435Z,7.95
2023-02-01T04:48:13.767Z,8.61
2023-02-01T04:48:46.639Z,8.88
2023-02-01T04:49:19.820Z,9.00
2023-02-01T04:50:30.571Z,9.47
2023-02-01T04:51:03.651Z,9.57
2023-02-01T04:53:30.898Z,9.51
2023-02-01T04:55:19.653Z,8.33
2023-02-01T04:56:30.512Z,7.69
2023-02-01T04:57:41.677Z,7.76
2023-02-01T04:58:14.753Z,8.05
2023-02-01T04:59:25.396Z,8.33
2023-02-01T05:01:14.081Z,9.21
2023-02-01T05:02:24.930Z,9.51
2023-02-01T05:03:36.093Z,9.81
2023-02-01T05:04:08.956Z,9.73
2023-02-01T05:04:41.943Z,9.64
2023-02-01T05:05:54.837Z,9.05
2023-02-01T05:07:43.273Z,7.97
2023-02-01T05:08:54.451Z,7.89
2023-02-01T05:10:43.508Z,8.61
2023-02-01T05:11:35.011Z,8.88
2023-02-01T05:12:28.157Z,9.18
2023-02-01T05:13:19.399Z,9.40
2023-02-01T05:13:52.536Z,9.69
2023-02-01T05:15:04.420Z,9.94
2023-02-01T05:16:15.693Z,10.15
2023-02-01T05:17:26.578Z,10.00
2023-02-01T05:17:59.641Z,9.75
2023-02-01T05:18:32.703Z,9.43
2023-02-01T05:19:05.677Z,9.15
2023-02-01T05:21:32.414Z,7.68
2023-02-01T05:22:43.705Z,7.84
2023-02-01T05:24:20.864Z,8.47
2023-02-01T05:25:31.757Z,9.18
2023-02-01T05:26:42.733Z,9.44
2023-02-01T05:27:15.773Z,9.71
2023-02-01T05:27:48.842Z,9.79
2023-02-01T05:28:59.702Z,9.76
2023-02-01T05:29:32.573Z,9.54
2023-02-01T05:30:44.028Z,8.80
2023-02-01T05:32:32.837Z,7.80
2023-02-01T05:33:43.628Z,7.73
2023-02-01T05:36:10.091Z,8.89
2023-02-01T05:36:43.065Z,9.18
2023-02-01T05:37:53.930Z,9.44
2023-02-01T05:38:26.898Z,9.42
2023-02-01T05:38:59.874Z,9.55
2023-02-01T05:40:11.556Z,9.85
2023-02-01T05:40:50.696Z,9.84
2023-02-01T05:41:23.866Z,9.64
2023-02-01T05:41:56.818Z,9.38
2023-02-01T05:42:29.800Z,9.03
2023-02-01T05:43:40.550Z,8.29
2023-02-01T05:44:51.257Z,7.68
2023-02-01T05:45:24.407Z,7.64
2023-02-01T05:47:13.954Z,8.37
2023-02-01T05:48:24.712Z,8.90
2023-02-01T05:49:35.366Z,9.33
2023-02-01T05:50:08.838Z,9.57
2023-02-01T05:50:41.827Z,9.86
2023-02-01T05:51:52.696Z,10.01
2023-02-01T05:53:03.547Z,9.51
2023-02-01T05:54:14.409Z,8.68
2023-02-01T05:54:50.864Z,8.27
2023-02-01T05:55:23.841Z,7.85
2023-02-01T05:55:56.811Z,7.52
2023-02-01T05:56:29.866Z,7.33
2023-02-01T05:57:40.540Z,7.34
2023-02-01T05:58:13.719Z,7.54
2023-02-01T05:58:46.695Z,7.80
2023-02-01T05:59:19.677Z,8.05
2023-02-01T06:01:08.115Z,8.79
2023-02-01T06:02:57.124Z,9.19
2023-02-01T06:03:30.483Z,9.40
2023-02-01T06:04:41.309Z,9.74
2023-02-01T06:05:14.281Z,9.81
2023-02-01T06:05:47.866Z,9.83
2023-02-01T06:06:58.831Z,9.48
2023-02-01T06:09:27.423Z,8.11
2023-02-01T06:10:38.374Z,8.03
2023-02-01T06:12:29.213Z,8.73
2023-02-01T06:13:40.444Z,9.32
2023-02-01T06:15:29.090Z,9.72
2023-02-01T06:16:41.246Z,9.91
2023-02-01T06:17:14.255Z,9.96
2023-02-01T06:18:25.955Z,9.87
2023-02-01T06:18:59.445Z,9.73
2023-02-01T06:19:32.314Z,9.50
2023-02-01T06:20:07.842Z,9.10
2023-02-01T06:21:24.948Z,8.31
2023-02-01T06:21:58.016Z,8.06
2023-02-01T06:22:30.981Z,8.07
2023-02-01T06:23:43.171Z,8.39
2023-02-01T06:24:16.247Z,8.68
2023-02-01T06:25:27.825Z,9.78
2023-02-01T06:27:57.127Z,9.91
2023-02-01T06:28:30.815Z,9.92
2023-02-01T06:29:03.652Z,9.78
2023-02-01T06:29:36.867Z,9.80
2023-02-01T06:30:48.556Z,9.13
2023-02-01T06:31:59.528Z,8.48
2023-02-01T06:33:48.472Z,8.01
2023-02-01T06:36:18.476Z,8.87
2023-02-01T06:36:51.550Z,9.25
2023-02-01T06:37:26.079Z,9.39
2023-02-01T06:38:37.243Z,9.67
2023-02-01T06:39:10.307Z,9.69
2023-02-01T06:42:14.729Z,9.28
2023-02-01T06:42:49.955Z,9.05
2023-02-01T06:44:01.989Z,8.40
2023-02-01T06:44:35.017Z,8.27
2023-02-01T06:45:09.127Z,8.37
2023-02-01T06:46:58.682Z,9.10
2023-02-01T06:48:09.444Z,9.58
2023-02-01T06:48:42.415Z,9.97
2023-02-01T06:49:15.466Z,10.12
2023-02-01T06:50:26.251Z,10.02
2023-02-01T06:50:59.458Z,9.84
2023-02-01T06:52:48.279Z,8.62
2023-02-01T06:54:38.688Z,7.97
2023-02-01T06:58:34.598Z,9.61
2023-02-01T06:59:46.180Z,10.13
2023-02-01T07:00:19.764Z,10.31
2023-02-01T07:00:54.987Z,10.05
2023-02-01T07:01:27.834Z,9.92
2023-02-01T07:03:18.145Z,8.96
2023-02-01T07:05:08.635Z,7.78
2023-02-01T07:06:19.602Z,7.72
2023-02-01T07:06:52.548Z,7.83
2023-02-01T07:07:25.544Z,8.10
2023-02-01T07:07:58.531Z,8.34
2023-02-01T07:08:32.337Z,8.58
2023-02-01T07:09:05.383Z,8.81
2023-02-01T07:09:38.364Z,9.04
2023-02-01T07:10:49.629Z,9.54
2023-02-01T07:12:38.481Z,9.87
2023-02-01T07:13:49.648Z,10.13
2023-02-01T07:15:00.417Z,9.94
2023-02-01T07:16:15.715Z,9.70
2023-02-01T07:17:26.844Z,8.99
2023-02-01T07:18:37.602Z,8.38
2023-02-01T07:19:10.675Z,8.36
2023-02-01T07:20:21.951Z,8.69
2023-02-01T07:20:55.146Z,9.01
2023-02-01T07:22:06.819Z,9.46
2023-02-01T07:22:39.856Z,9.70
2023-02-01T07:23:13.259Z,9.89
2023-02-01T07:23:46.334Z,10.05
2023-02-01T07:24:57.060Z,10.32
2023-02-01T07:26:08.263Z,9.88
2023-02-01T07:27:19.124Z,9.16
2023-02-01T07:29:47.193Z,8.06
2023-02-01T07:30:20.290Z,8.15
2023-02-01T07:32:09.455Z,8.96
2023-02-01T07:34:00.838Z,9.77
2023-02-01T07:34:34.641Z,9.90
2023-02-01T07:35:08.030Z,9.90
2023-02-01T07:35:40.862Z,9.98
2023-02-01T07:36:15.809Z,10.13
2023-02-01T07:37:26.767Z,10.42
2023-02-01T07:38:37.731Z,10.22
2023-02-01T07:39:10.806Z,10.04
2023-02-01T07:40:26.172Z,9.18
2023-02-01T07:42:57.312Z,8.46
2023-02-01T13:48:02.611Z,8.22
2023-02-01T13:48:53.310Z,8.16
2023-02-01T13:49:28.709Z,8.51
2023-02-01T13:50:24.947Z,8.88
2023-02-01T13:50:59.145Z,9.55
2023-02-01T13:51:43.493Z,9.96
2023-02-01T13:52:39.728Z,10.19
2023-02-01T13:53:12.675Z,10.47
2023-02-01T13:53:47.489Z,10.51
2023-02-01T13:54:26.302Z,10.71
2023-02-01T13:55:21.708Z,10.81
2023-02-01T13:56:42.835Z,10.07
2023-02-01T13:57:38.715Z,9.79
2023-02-01T13:58:21.737Z,9.37
2023-02-01T13:58:54.663Z,9.02
2023-02-01T14:01:21.898Z,8.81
2023-02-01T14:01:55.225Z,9.13
2023-02-01T14:02:43.659Z,9.53
2023-02-01T14:04:49.279Z,10.78
2023-02-01T14:06:45.439Z,10.85
2023-02-01T14:08:07.657Z,10.33
2023-02-01T14:08:42.374Z,9.97
2023-02-01T14:09:18.199Z,9.71
2023-02-01T14:09:51.246Z,9.40
2023-02-01T14:10:46.784Z,9.13
2023-02-01T14:12:44.449Z,9.09
2023-02-01T14:13:37.392Z,9.38
2023-02-01T14:14:16.621Z,10.02
2023-02-01T14:14:49.571Z,10.41
2023-02-01T14:15:26.764Z,10.68
2023-02-01T14:17:25.064Z,10.80
2023-02-01T14:17:58.132Z,10.57
2023-02-01T14:18:42.173Z,10.33
2023-02-01T14:19:29.004Z,9.93
2023-02-01T14:20:41.794Z,9.45
2023-02-01T14:21:23.590Z,8.86
2023-02-01T14:22:01.591Z,8.60
2023-02-01T14:22:35.079Z,8.57
2023-02-01T14:23:16.680Z,8.80
2023-02-01T14:24:58.102Z,9.51
2023-02-01T14:27:21.609Z,10.16
2023-02-01T14:29:20.782Z,11.01
2023-02-01T14:30:00.703Z,11.12
2023-02-01T14:30:33.771Z,11.02
2023-02-01T14:32:16.827Z,10.39
2023-02-01T14:32:49.903Z,10.11
2023-02-01T14:33:24.806Z,9.83
2023-02-01T14:34:00.280Z,9.48
2023-02-01T14:34:36.198Z,9.19
2023-02-01T14:35:22.005Z,9.07
2023-02-01T14:36:07.504Z,9.19
2023-02-01T14:36:45.948Z,9.42
2023-02-01T14:37:18.916Z,9.76
2023-02-01T14:37:53.692Z,10.05
2023-02-01T14:38:26.696Z,10.36
2023-02-01T14:38:59.669Z,10.62
2023-02-01T14:39:47.730Z,10.78
2023-02-01T14:40:21.498Z,11.04
2023-02-01T14:42:27.945Z,11.28
2023-02-01T14:43:00.924Z,11.27
2023-02-01T14:44:12.773Z,11.21
2023-02-01T14:47:12.118Z,9.53
2023-02-01T14:48:26.560Z,9.64
2023-02-01T14:48:59.793Z,9.84
2023-02-01T14:49:51.221Z,9.99
2023-02-01T14:51:19.240Z,10.67
2023-02-01T14:52:34.289Z,9.97
2023-02-01T14:54:31.890Z,8.62
2023-02-01T14:56:31.150Z,8.31
2023-02-01T14:57:42.052Z,8.80
2023-02-01T14:58:38.102Z,9.07
2023-02-01T14:59:16.665Z,9.54
2023-02-01T14:59:49.587Z,9.57
2023-02-01T15:00:30.663Z,9.73
2023-02-01T15:01:52.317Z,9.63
2023-02-01T15:03:41.100Z,9.35
2023-02-01T15:05:00.875Z,8.18
2023-02-01T15:06:28.220Z,7.66
2023-02-01T15:07:09.204Z,7.84
2023-02-01T15:08:27.967Z,8.34
2023-02-01T15:09:05.434Z,8.66
2023-02-01T15:09:40.223Z,8.99
2023-02-01T15:11:29.979Z,9.29
2023-02-01T18:30:39.608Z,9.05
2023-02-01T18:31:28.162Z,9.34
2023-02-01T18:32:39.729Z,9.91
2023-02-01T18:33:14.173Z,10.15
2023-02-01T18:33:47.109Z,10.33
2023-02-01T18:34:25.469Z,10.44
2023-02-01T18:35:00.411Z,10.66
2023-02-01T18:35:34.525Z,10.85
2023-02-01T18:36:11.471Z,10.97
2023-02-01T18:37:22.464Z,11.07
2023-02-01T18:38:34.259Z,10.65
2023-02-01T18:39:07.212Z,10.33
2023-02-01T18:39:40.254Z,10.02
2023-02-01T18:40:52.180Z,9.66
2023-02-01T18:44:38.885Z,9.08
2023-02-01T18:45:30.799Z,9.35
2023-02-01T18:46:41.979Z,9.99
2023-02-01T18:47:52.841Z,10.49
2023-02-01T18:48:26.330Z,10.62
2023-02-01T18:48:59.220Z,10.83
2023-02-01T18:50:48.765Z,10.63
2023-02-01T18:51:23.581Z,10.40
2023-02-01T18:52:34.543Z,9.57
2023-02-01T18:53:12.253Z,9.26
2023-02-01T18:54:17.924Z,8.61
2023-02-01T18:55:29.351Z,8.48
2023-02-01T18:56:03.087Z,8.67
2023-02-01T18:56:36.066Z,8.94
2023-02-01T18:57:09.463Z,9.23
2023-02-01T18:57:42.390Z,9.45
2023-02-01T18:59:31.925Z,10.05
2023-02-01T19:00:39.380Z,10.52
2023-02-01T19:01:59.615Z,10.84
2023-02-01T19:03:14.130Z,11.10
2023-02-01T19:03:48.938Z,11.13
2023-02-01T19:04:27.027Z,10.99
2023-02-01T19:05:00.321Z,10.79
2023-02-01T19:05:33.380Z,10.51
2023-02-01T19:06:44.763Z,9.67
2023-02-01T19:07:17.736Z,9.34
2023-02-01T19:07:50.815Z,9.03
2023-02-01T19:08:27.167Z,8.77
2023-02-01T19:09:00.134Z,8.66
2023-02-01T19:09:35.405Z,8.67
2023-02-01T19:10:10.477Z,8.82
2023-02-01T19:10:43.481Z,9.06
2023-02-01T19:13:20.953Z,10.21
2023-02-01T19:13:55.566Z,10.39
2023-02-01T19:14:28.481Z,10.65
2023-02-01T19:15:01.627Z,10.77
2023-02-01T19:15:40.292Z,10.91
2023-02-01T19:16:51.611Z,10.83
2023-02-01T19:18:40.429Z,9.88
2023-02-01T19:19:13.527Z,9.53
2023-02-01T19:19:48.229Z,9.21
2023-02-01T19:21:03.804Z,8.63
2023-02-01T19:21:37.600Z,8.67
2023-02-01T19:22:10.569Z,8.89
2023-02-01T19:23:21.431Z,9.48
2023-02-01T19:24:33.066Z,9.99
2023-02-01T19:25:45.402Z,10.48
2023-02-01T19:26:19.669Z,10.64
2023-02-01T19:27:30.467Z,10.81
2023-02-01T19:28:41.633Z,10.54
2023-02-01T19:30:30.295Z,9.55
2023-02-01T19:31:04.355Z,9.22
2023-02-01T19:31:37.484Z,8.91
2023-02-01T19:32:10.535Z,8.60
2023-02-01T19:32:43.507Z,8.44
2023-02-01T19:33:17.182Z,8.45
2023-02-01T19:33:50.268Z,8.65
2023-02-01T19:34:23.166Z,8.97
2023-02-01T19:38:11.533Z,10.51
2023-02-01T19:39:22.659Z,10.60
2023-02-01T19:40:33.825Z,10.48
2023-02-01T19:42:22.693Z,9.54
2023-02-01T19:44:49.832Z,8.29
2023-02-01T19:46:03.164Z,8.47
2023-02-01T19:47:52.035Z,9.29
2023-02-01T19:49:40.722Z,10.08
2023-02-01T19:50:17.673Z,10.23
2023-02-01T19:50:50.720Z,10.32
2023-02-01T19:52:02.484Z,10.22
2023-02-01T19:53:13.436Z,9.81
2023-02-01T19:54:24.506Z,8.98
2023-02-01T19:54:57.595Z,8.61
2023-02-01T19:55:30.550Z,8.32
2023-02-01T19:57:20.015Z,8.39
2023-02-01T19:58:30.775Z,9.02
2023-02-01T19:59:42.760Z,9.58
2023-02-01T20:00:54.720Z,9.95
2023-02-01T20:01:30.703Z,10.13
2023-02-01T20:02:41.596Z,10.50
2023-02-01T20:03:52.689Z,10.39
2023-02-01T20:04:26.572Z,10.16
2023-02-01T20:04:59.970Z,9.86
2023-02-01T20:07:28.645Z,8.42
2023-02-01T20:08:39.672Z,8.04
2023-02-01T20:09:50.674Z,8.36
2023-02-01T20:10:23.961Z,8.61
2023-02-01T20:10:57.850Z,8.86
2023-02-01T20:11:33.287Z,9.21
2023-02-01T20:12:47.418Z,9.56
2023-02-01T20:13:20.660Z,9.78
2023-02-01T20:14:31.969Z,10.14
2023-02-01T20:15:43.760Z,10.40
2023-02-01T20:16:54.820Z,10.49
2023-02-01T20:17:27.939Z,10.31
2023-02-01T20:18:01.078Z,10.03
2023-02-01T20:20:29.703Z,8.65
2023-02-01T20:21:43.491Z,8.50
2023-02-01T20:26:11.601Z,10.44
2023-02-01T20:26:45.125Z,10.68
2023-02-01T20:27:18.079Z,10.88
2023-02-01T20:27:52.277Z,11.03
2023-02-01T20:29:03.344Z,10.95
2023-02-01T20:30:20.009Z,10.42
2023-02-01T20:31:31.095Z,9.68
2023-02-01T20:32:42.288Z,9.03
2023-02-01T20:33:54.164Z,8.54
2023-02-01T20:35:05.553Z,8.63
2023-02-01T20:35:38.511Z,8.87
2023-02-01T20:36:49.373Z,9.51
2023-02-01T20:38:01.978Z,10.00
2023-02-01T20:38:34.845Z,10.28
2023-02-01T20:42:59.451Z,10.69
2023-02-01T20:43:33.064Z,10.40
2023-02-01T20:44:43.798Z,9.70
2023-02-01T20:45:54.560Z,9.02
2023-02-01T20:47:08.297Z,8.44
2023-02-01T20:48:20.274Z,8.60
2023-02-01T20:49:31.551Z,9.24
2023-02-01T20:50:05.338Z,9.57
2023-02-01T20:50:38.619Z,9.91
2023-02-01T20:51:12.418Z,10.17
2023-02-01T20:52:23.376Z,10.60
2023-02-01T20:54:50.225Z,10.50
2023-02-01T20:56:40.915Z,9.43
2023-02-01T20:57:52.085Z,8.76
2023-02-01T20:58:25.163Z,8.44
2023-02-01T20:59:42.678Z,8.07
2023-02-01T21:02:10.734Z,9.21
2023-02-01T21:03:21.921Z,9.78
2023-02-01T21:04:34.213Z,10.29
2023-02-01T21:05:50.258Z,10.50
2023-02-01T21:06:23.373Z,10.34
2023-02-01T21:07:35.169Z,9.82
2023-02-01T21:08:09.787Z,9.48
2023-02-01T21:08:42.781Z,9.16
2023-02-01T21:09:54.324Z,8.44
2023-02-01T21:11:08.580Z,8.08
2023-02-01T21:11:41.634Z,8.20
2023-02-01T21:12:14.523Z,8.44
2023-02-01T21:13:25.952Z,9.11
2023-02-01T21:13:59.262Z,9.43
2023-02-01T21:15:10.313Z,10.02
2023-02-01T21:15:44.050Z,10.21
2023-02-01T21:16:18.159Z,10.39
2023-02-01T21:16:51.195Z,10.58
2023-02-01T21:17:28.982Z,10.69
2023-02-01T21:18:03.078Z,10.77
2023-02-01T21:18:36.257Z,10.67
2023-02-01T21:19:10.151Z,10.40
2023-02-01T21:19:43.574Z,10.13
2023-02-01T21:23:00.557Z,8.30
2023-02-01T21:24:11.313Z,8.25
2023-02-01T21:25:24.499Z,8.82
2023-02-01T21:26:01.278Z,9.15
2023-02-01T21:26:41.148Z,9.52
2023-02-01T21:27:14.301Z,9.87
2023-02-01T21:28:25.280Z,10.27
2023-02-01T21:28:58.179Z,10.46
2023-02-01T21:29:32.340Z,10.61
2023-02-01T21:30:44.478Z,10.82
2023-02-01T21:31:18.388Z,10.72
2023-02-01T21:31:51.412Z,10.54
2023-02-01T21:33:02.582Z,9.97
2023-02-01T21:34:13.535Z,9.30
2023-02-01T21:34:46.708Z,8.99
2023-02-01T21:35:19.680Z,8.70
2023-02-01T21:36:36.449Z,8.32
2023-02-01T21:37:09.658Z,8.38
2023-02-01T21:37:42.546Z,8.59
2023-02-01T21:40:11.329Z,10.07
2023-02-01T21:41:42.765Z,10.56
2023-02-01T21:44:14.801Z,9.38
2023-02-01T21:44:48.506Z,9.03
2023-02-01T21:45:59.260Z,8.50
2023-02-01T21:46:32.258Z,8.39
2023-02-01T21:47:43.215Z,8.59
2023-02-01T21:49:05.223Z,9.32
2023-02-01T21:50:19.740Z,10.01
2023-02-01T21:50:52.754Z,10.15
2023-02-01T21:52:03.517Z,10.53
2023-02-01T21:52:39.182Z,10.43
2023-02-01T21:53:12.048Z,10.23
2023-02-01T21:54:22.891Z,9.54
2023-02-01T21:56:53.306Z,8.27
2023-02-01T21:57:29.461Z,8.14
2023-02-01T21:58:02.427Z,8.18
2023-02-01T21:59:13.441Z,8.74
2023-02-01T22:01:04.175Z,9.92
2023-02-01T22:02:16.643Z,10.37
2023-02-01T22:02:49.561Z,10.32
2023-02-01T22:03:25.232Z,10.21
2023-02-01T22:03:58.166Z,10.03
2023-02-01T22:04:31.137Z,9.77
2023-02-01T22:05:05.370Z,9.48
2023-02-01T22:05:38.312Z,9.15
2023-02-01T22:06:11.285Z,8.81
2023-02-01T22:08:03.210Z,8.18
2023-02-01T22:08:39.354Z,8.36
2023-02-01T22:09:22.882Z,8.57
2023-02-01T22:09:55.847Z,8.97
2023-02-01T22:10:28.819Z,9.28
2023-02-01T22:11:01.707Z,9.58
2023-02-01T22:12:13.176Z,10.12
2023-02-01T22:13:24.541Z,10.47
2023-02-01T22:14:35.403Z,10.70
2023-02-01T22:15:08.924Z,10.73
2023-02-01T22:15:41.962Z,10.62
2023-02-01T22:16:18.103Z,10.44
2023-02-01T22:17:29.840Z,9.86
2023-02-01T22:18:44.895Z,9.16
2023-02-01T22:19:18.242Z,8.87
2023-02-01T22:19:51.196Z,8.61
2023-02-01T22:21:39.134Z,8.80
2023-02-01T22:22:50.400Z,9.26
2023-02-01T22:24:10.007Z,9.94
2023-02-01T22:25:20.928Z,10.47
2023-02-01T22:26:00.389Z,10.48
2023-02-01T22:26:33.363Z,10.39
2023-02-01T22:28:31.073Z,9.84
2023-02-01T22:28:39.281Z,9.34
2023-02-01T22:32:21.189Z,8.39
2023-02-01T22:32:54.153Z,8.67
2023-02-01T22:34:05.218Z,9.36
2023-02-01T22:34:39.320Z,9.61
2023-02-01T22:35:12.256Z,9.90
2023-02-01T22:35:50.690Z,10.12
2023-02-01T22:36:25.382Z,10.31
2023-02-01T22:36:58.240Z,10.25
2023-02-01T22:38:10.058Z,10.19
2023-02-01T22:38:43.303Z,9.97
2023-02-01T22:39:49.080Z,9.48
2023-02-01T22:41:42.330Z,8.40
2023-02-01T22:42:15.405Z,8.22
2023-02-01T22:42:49.710Z,8.14
2023-02-01T22:43:22.887Z,8.18
2023-02-01T22:44:33.749Z,8.61
2023-02-01T22:46:25.553Z,9.64
2023-02-01T22:46:58.546Z,9.87
2023-02-01T22:47:31.483Z,10.09
2023-02-01T22:49:18.331Z,10.26
2023-02-01T22:49:51.498Z,10.07
2023-02-01T22:50:24.505Z,9.87
2023-02-01T22:51:38.996Z,9.22
2023-02-01T22:52:11.963Z,8.89
2023-02-01T22:53:22.902Z,8.22
2023-02-01T22:53:58.695Z,8.02
2023-02-01T22:54:31.667Z,7.90
2023-02-01T22:56:31.006Z,8.44
2023-02-01T22:57:04.134Z,8.82
2023-02-01T22:59:00.450Z,9.66
2023-02-01T23:00:12.378Z,10.18
2023-02-01T23:00:45.729Z,10.37
2023-02-01T23:01:18.653Z,10.56
2023-02-01T23:03:45.373Z,10.51
2023-02-01T23:04:18.773Z,10.22
2023-02-01T23:05:29.879Z,9.49
2023-02-01T23:06:41.660Z,8.78
2023-02-01T23:07:14.633Z,8.49
2023-02-01T23:07:49.178Z,8.30
2023-02-01T23:08:22.109Z,8.26
2023-02-01T23:08:56.824Z,8.41
2023-02-01T23:09:29.900Z,8.66
2023-02-01T23:10:03.280Z,8.99
2023-02-01T23:11:52.850Z,9.94
2023-02-01T23:13:41.713Z,10.58
2023-02-01T23:15:06.433Z,10.57
2023-02-01T23:15:39.810Z,10.28
2023-02-01T23:16:13.375Z,9.97
2023-02-01T23:18:41.424Z,8.64
2023-02-01T23:20:30.171Z,8.27
2023-02-01T23:21:43.183Z,8.76
2023-02-01T23:24:08.525Z,9.84
2023-02-01T23:25:20.307Z,10.45
2023-02-01T23:27:11.787Z,10.71
2023-02-01T23:27:44.795Z,10.46
2023-02-01T23:28:56.850Z,9.88
2023-02-01T23:29:29.730Z,9.46
2023-02-01T23:30:05.678Z,9.15
2023-02-01T23:30:38.947Z,8.84
2023-02-01T23:33:06.191Z,8.28
2023-02-01T23:33:39.370Z,8.50
2023-02-01T23:34:12.752Z,8.78
2023-02-01T23:35:18.815Z,9.43
2023-02-01T23:35:56.490Z,9.67
2023-02-01T23:36:29.869Z,9.95
2023-02-01T23:37:41.038Z,10.45
2023-02-01T23:38:14.058Z,10.58
2023-02-01T23:39:25.614Z,10.52
2023-02-01T23:39:58.740Z,10.29
2023-02-01T23:40:32.351Z,10.02
2023-02-01T23:41:44.475Z,9.40
2023-02-01T23:42:17.741Z,9.09
2023-02-01T23:43:10.622Z,8.70